Rosalie, Nebraska
Current Conditions -  °F | °C
As of 4:52 AM on Thursday 27 Nov 2014 (Local Time) from KSUX Reporting Station
Overcast Overcast  
Wind Chill: -1°   Ceiling: 5000
Heat Index: 12°   Visibility: 10mi
Dew Point:   Wind: 10mph
Humidity: 59%   Direction: 30°NNE
Pressure: 30.51"   Gusts: NA
Location:  42.06°N, 96.51°W
Report Text: KSUX 271052Z 03009KT 10SM OVC050 M11/M18 A3051 RMK AO2 SLP353 T11111178
Loading
Personal Weather Stations






























Interactive Weather Map New forecast layout! Learn more

10-Day Weather Forecast

Advertisements
Track Severe Weather on mobile